Time;durP1;ratioP1;P1;durP2;ratioP2;P2;SDS_P1;SDS_P2;PMS_P1;PMS_P2;Temp;Humidity;BMP_temperature;BMP_pressure;BME280_temperature;BME280_humidity;BME280_pressure;Samples;Min_cycle;Max_cycle;Signal;HPM_P1;HPM_P2
2021/08/02 00:01:08;;;;;;;0.93;0.82;;;16.50;99.90;;;;;;4980663;28;20725;-67
2021/08/02 00:03:45;;;;;;;1.85;0.85;;;16.40;99.90;;;;;;4981760;28;20042;-66
2021/08/02 00:06:21;;;;;;;1.13;1.02;;;16.30;99.90;;;;;;4979342;28;20496;-70
2021/08/02 00:09:04;;;;;;;2.97;1.38;;;16.10;99.90;;;;;;4980783;28;20128;-67
2021/08/02 00:11:55;;;;;;;3.88;1.45;;;15.90;99.90;;;;;;4977853;28;20038;-69
2021/08/02 00:14:22;;;;;;;4.13;1.70;;;15.80;99.90;;;;;;4980389;28;20054;-65
2021/08/02 00:16:51;;;;;;;2.22;1.20;;;15.70;99.90;;;;;;4979183;28;20690;-66
2021/08/02 00:19:18;;;;;;;2.80;1.70;;;15.60;99.90;;;;;;4983388;28;20039;-67
2021/08/02 00:21:46;;;;;;;2.40;1.20;;;15.60;99.90;;;;;;4970590;28;20051;-64
2021/08/02 00:24:14;;;;;;;6.57;1.58;;;15.60;99.90;;;;;;4977411;28;20077;-68
2021/08/02 00:26:41;;;;;;;3.78;1.58;;;15.60;99.90;;;;;;4982644;28;20050;-65
2021/08/02 00:29:08;;;;;;;4.03;2.00;;;15.50;99.90;;;;;;4971646;28;20065;-66
2021/08/02 00:31:36;;;;;;;1.38;1.23;;;15.50;99.90;;;;;;4982708;28;20097;-66
2021/08/02 00:34:04;;;;;;;1.83;1.00;;;15.50;99.90;;;;;;4995210;28;20703;-68
2021/08/02 00:36:44;;;;;;;2.75;1.40;;;15.50;99.90;;;;;;4979752;28;20082;-65
2021/08/02 00:39:27;;;;;;;2.90;1.17;;;15.40;99.90;;;;;;4996016;28;20069;-66
2021/08/02 00:42:19;;;;;;;1.45;1.25;;;15.40;99.90;;;;;;4982529;28;20046;-68
2021/08/02 00:45:01;;;;;;;2.88;2.22;;;15.40;99.90;;;;;;4979057;28;20057;-66
2021/08/02 00:47:39;;;;;;;1.60;1.48;;;15.40;99.90;;;;;;4997022;28;20054;-65
2021/08/02 00:50:11;;;;;;;3.75;1.63;;;15.40;99.90;;;;;;4978851;28;20520;-68
2021/08/02 00:52:48;;;;;;;8.50;2.15;;;15.40;99.90;;;;;;4981529;28;20150;-68
2021/08/02 00:55:16;;;;;;;4.50;1.92;;;15.40;99.90;;;;;;4979288;28;20046;-65
2021/08/02 00:57:44;;;;;;;4.00;1.73;;;15.40;99.90;;;;;;4983078;28;20748;-68
2021/08/02 01:00:14;;;;;;;1.83;1.25;;;15.30;99.90;;;;;;4991405;28;20045;-70
2021/08/02 01:02:52;;;;;;;2.03;1.40;;;15.30;99.90;;;;;;4979229;28;20059;-66
2021/08/02 01:05:21;;;;;;;1.45;1.35;;;15.30;99.90;;;;;;4972572;28;20042;-66
2021/08/02 01:07:57;;;;;;;2.38;1.55;;;15.30;99.90;;;;;;4984000;28;20046;-66
2021/08/02 01:10:32;;;;;;;2.00;1.63;;;15.30;99.90;;;;;;4982642;28;20051;-66
2021/08/02 01:13:03;;;;;;;3.95;1.23;;;15.30;99.90;;;;;;4983916;28;20132;-65
2021/08/02 01:15:33;;;;;;;1.88;1.40;;;15.30;99.90;;;;;;4998702;28;20042;-66
2021/08/02 01:18:02;;;;;;;5.15;2.10;;;15.30;99.90;;;;;;4984709;28;20120;-67
2021/08/02 01:20:32;;;;;;;2.35;1.80;;;15.30;99.90;;;;;;4999386;28;20064;-68
2021/08/02 01:23:04;;;;;;;2.88;1.88;;;15.30;99.90;;;;;;4981978;28;20038;-66
2021/08/02 01:25:34;;;;;;;4.32;2.25;;;15.20;99.90;;;;;;4983059;28;20535;-65
2021/08/02 01:28:13;;;;;;;2.42;1.42;;;15.30;99.90;;;;;;4982052;28;20050;-67
2021/08/02 01:30:47;;;;;;;3.88;1.73;;;15.30;99.90;;;;;;4979774;28;20613;-65
2021/08/02 01:33:28;;;;;;;2.92;1.83;;;15.30;99.90;;;;;;4984445;28;20042;-65
2021/08/02 01:36:06;;;;;;;2.28;1.38;;;15.30;99.90;;;;;;4982254;28;20097;-70
2021/08/02 01:38:36;;;;;;;4.13;1.60;;;15.20;99.90;;;;;;4983287;28;20070;-68
2021/08/02 01:41:09;;;;;;;3.08;1.15;;;15.30;99.90;;;;;;4969405;28;20120;-66
2021/08/02 01:43:39;;;;;;;2.67;1.50;;;15.30;99.90;;;;;;4981948;28;20364;-66
2021/08/02 01:46:13;;;;;;;4.38;2.20;;;15.20;99.90;;;;;;4969934;28;20138;-67
2021/08/02 01:49:00;;;;;;;1.40;1.30;;;15.20;99.90;;;;;;4980068;28;20155;-68
2021/08/02 01:51:36;;;;;;;5.70;2.58;;;15.20;99.90;;;;;;4980954;28;20133;-67
2021/08/02 01:54:28;;;;;;;3.30;2.08;;;15.10;99.90;;;;;;4999315;28;20064;-68
2021/08/02 01:57:00;;;;;;;1.45;1.35;;;15.10;99.90;;;;;;4980451;28;20092;-66
2021/08/02 01:59:41;;;;;;;3.63;2.03;;;15.10;99.90;;;;;;4983734;28;20052;-65
2021/08/02 02:02:13;;;;;;;5.00;1.48;;;15.10;99.90;;;;;;4994687;28;20073;-65
2021/08/02 02:04:46;;;;;;;3.03;2.15;;;15.10;99.90;;;;;;4980111;28;20038;-66
2021/08/02 02:07:16;;;;;;;4.40;2.20;;;15.10;99.90;;;;;;4982183;28;20100;-69
2021/08/02 02:09:57;;;;;;;3.97;1.75;;;15.20;99.90;;;;;;4985015;28;20045;-68
2021/08/02 02:12:26;;;;;;;3.08;1.92;;;15.10;99.90;;;;;;4982288;28;20905;-65
2021/08/02 02:14:57;;;;;;;3.05;1.92;;;15.10;99.90;;;;;;4978924;28;20047;-64
2021/08/02 02:17:26;;;;;;;1.60;1.50;;;15.10;99.90;;;;;;4985676;28;20070;-66
2021/08/02 02:19:56;;;;;;;1.75;1.40;;;15.10;99.90;;;;;;4979217;28;20050;-67
2021/08/02 02:22:25;;;;;;;3.47;2.45;;;15.10;99.90;;;;;;4982003;28;20108;-66
2021/08/02 02:24:54;;;;;;;2.67;2.22;;;15.10;99.90;;;;;;4982401;28;20045;-65
2021/08/02 02:27:28;;;;;;;6.68;3.97;;;15.10;99.90;;;;;;4965051;28;20062;-64
2021/08/02 02:30:06;;;;;;;2.60;1.70;;;15.10;99.90;;;;;;4980779;28;20097;-67
2021/08/02 02:32:38;;;;;;;3.20;2.42;;;15.10;99.90;;;;;;4982267;28;20361;-67
2021/08/02 02:35:10;;;;;;;2.22;2.03;;;15.10;99.90;;;;;;4994898;28;20141;-67
2021/08/02 02:37:40;;;;;;;8.45;3.75;;;15.10;99.90;;;;;;4996714;28;20046;-68
2021/08/02 02:40:07;;;;;;;2.90;1.60;;;15.10;99.90;;;;;;4984573;28;20141;-65
2021/08/02 02:42:35;;;;;;;5.80;3.00;;;15.10;99.90;;;;;;4979006;28;20084;-66
2021/08/02 02:45:08;;;;;;;3.33;2.47;;;15.10;99.90;;;;;;4976775;28;20073;-64
2021/08/02 02:47:37;;;;;;;3.60;3.05;;;15.10;99.90;;;;;;4981233;28;20753;-65
2021/08/02 02:50:06;;;;;;;5.82;2.60;;;15.10;99.90;;;;;;4983074;28;20038;-67
2021/08/02 02:52:34;;;;;;;4.05;2.38;;;15.10;99.90;;;;;;4980083;28;20050;-64
2021/08/02 02:55:05;;;;;;;6.73;2.30;;;15.00;99.90;;;;;;4982762;28;20053;-65
2021/08/02 02:57:33;;;;;;;3.58;1.92;;;15.00;99.90;;;;;;4981614;28;20334;-66
2021/08/02 03:00:03;;;;;;;6.63;1.87;;;15.10;99.90;;;;;;4980830;28;20074;-64
2021/08/02 03:02:30;;;;;;;3.85;2.03;;;15.10;99.90;;;;;;4981980;28;20035;-66
2021/08/02 03:05:00;;;;;;;4.10;2.00;;;15.20;99.90;;;;;;4981671;28;20046;-65
2021/08/02 03:07:31;;;;;;;4.70;1.45;;;15.20;99.90;;;;;;4982413;28;20042;-66
2021/08/02 03:10:00;;;;;;;4.32;1.42;;;15.10;99.90;;;;;;4983261;28;20069;-65
2021/08/02 03:12:30;;;;;;;4.00;1.70;;;15.10;99.90;;;;;;4981823;28;20085;-66
2021/08/02 03:14:57;;;;;;;2.50;1.33;;;15.10;99.90;;;;;;4981355;28;20134;-68
2021/08/02 03:17:24;;;;;;;6.28;1.52;;;15.10;99.90;;;;;;4983381;28;20321;-66
2021/08/02 03:19:51;;;;;;;3.70;1.55;;;15.10;99.90;;;;;;4980792;28;20113;-67
2021/08/02 03:22:41;;;;;;;1.70;1.15;;;15.10;99.90;;;;;;4975769;28;20101;-65
2021/08/02 03:25:23;;;;;;;2.03;1.25;;;15.10;99.90;;;;;;4980157;28;20175;-66
2021/08/02 03:28:10;;;;;;;3.90;1.00;;;15.10;99.90;;;;;;4979332;28;20078;-65
2021/08/02 03:30:39;;;;;;;5.25;1.58;;;15.20;99.90;;;;;;4978471;28;20519;-65
2021/08/02 03:33:11;;;;;;;2.55;0.82;;;15.20;99.90;;;;;;4979470;28;20105;-65
2021/08/02 03:35:42;;;;;;;1.60;0.82;;;15.10;99.90;;;;;;4983477;28;20042;-67
2021/08/02 03:38:12;;;;;;;2.05;1.00;;;15.20;99.90;;;;;;4979573;28;20038;-66
2021/08/02 03:40:40;;;;;;;1.67;1.00;;;15.20;99.90;;;;;;4981552;28;20077;-66
2021/08/02 03:43:08;;;;;;;4.25;0.98;;;15.30;99.90;;;;;;4982922;28;20046;-67
2021/08/02 03:45:35;;;;;;;2.40;1.15;;;15.30;99.90;;;;;;4980093;28;20063;-65
2021/08/02 03:48:03;;;;;;;1.10;0.82;;;15.30;99.90;;;;;;4981277;28;20153;-70
2021/08/02 03:50:31;;;;;;;1.45;0.90;;;15.30;99.90;;;;;;4979208;28;20376;-65
2021/08/02 03:52:59;;;;;;;2.72;1.52;;;15.30;99.90;;;;;;4981919;28;20069;-64
2021/08/02 03:55:29;;;;;;;5.68;1.67;;;15.40;99.90;;;;;;4980089;28;20393;-69
2021/08/02 03:57:56;;;;;;;6.97;1.50;;;15.40;99.90;;;;;;4982525;28;20455;-65
2021/08/02 04:00:24;;;;;;;1.23;1.00;;;15.40;99.90;;;;;;4979623;28;20507;-67
2021/08/02 04:02:52;;;;;;;3.22;1.30;;;15.50;99.90;;;;;;4981751;28;20057;-65
2021/08/02 04:05:20;;;;;;;5.07;1.15;;;15.50;99.90;;;;;;4982185;28;20055;-64
2021/08/02 04:07:47;;;;;;;3.53;1.40;;;15.50;99.90;;;;;;4982729;28;20104;-64
2021/08/02 04:10:14;;;;;;;1.58;1.23;;;15.60;99.90;;;;;;4973408;28;20551;-65
2021/08/02 04:12:41;;;;;;;2.85;2.15;;;15.60;99.90;;;;;;4983173;28;20050;-64
2021/08/02 04:15:11;;;;;;;2.20;1.00;;;15.60;99.90;;;;;;4979825;28;20046;-67
2021/08/02 04:17:38;;;;;;;0.60;0.60;;;15.60;99.90;;;;;;4982375;28;20046;-65
2021/08/02 04:20:06;;;;;;;2.63;0.90;;;15.60;99.90;;;;;;4977107;28;20073;-68
2021/08/02 04:22:33;;;;;;;1.58;1.48;;;15.60;99.90;;;;;;4980142;28;20100;-64
2021/08/02 04:25:01;;;;;;;1.65;0.95;;;15.60;99.90;;;;;;4978472;28;20062;-66
2021/08/02 04:27:28;;;;;;;2.53;0.98;;;15.60;99.90;;;;;;4982464;28;20039;-66
2021/08/02 04:29:55;;;;;;;1.58;0.98;;;15.60;99.90;;;;;;4980364;28;20046;-64
2021/08/02 04:32:22;;;;;;;1.00;0.70;;;15.60;99.90;;;;;;4981013;28;20687;-65
2021/08/02 04:34:49;;;;;;;2.22;1.70;;;15.60;99.90;;;;;;4977569;28;20039;-64
2021/08/02 04:37:16;;;;;;;1.65;1.35;;;15.60;99.90;;;;;;4979241;28;20418;-67
2021/08/02 04:39:42;;;;;;;2.47;1.23;;;15.50;99.90;;;;;;4983025;28;20057;-67
2021/08/02 04:42:10;;;;;;;0.70;0.57;;;15.50;99.90;;;;;;4977240;28;20444;-65
2021/08/02 04:44:37;;;;;;;0.50;0.50;;;15.40;99.90;;;;;;4982023;28;20066;-66
2021/08/02 04:47:04;;;;;;;1.65;0.98;;;15.40;99.90;;;;;;4973936;28;20046;-65
2021/08/02 04:49:31;;;;;;;3.83;1.20;;;15.40;99.90;;;;;;4986926;28;20042;-65
2021/08/02 04:51:58;;;;;;;0.93;0.70;;;15.40;99.90;;;;;;4984496;28;20125;-69
2021/08/02 04:54:25;;;;;;;2.10;1.13;;;15.30;99.90;;;;;;4983280;28;20074;-65
2021/08/02 04:56:52;;;;;;;2.88;1.23;;;15.40;99.90;;;;;;4985272;28;20045;-65
2021/08/02 04:59:19;;;;;;;3.00;1.02;;;15.40;99.90;;;;;;4987154;28;20152;-64
2021/08/02 05:01:45;;;;;;;2.55;1.20;;;15.50;99.90;;;;;;4985200;28;20495;-71
2021/08/02 05:04:12;;;;;;;2.85;0.98;;;15.50;99.90;;;;;;4984977;28;20548;-64
2021/08/02 05:06:39;;;;;;;1.30;1.20;;;15.50;99.90;;;;;;4986361;28;20117;-68
2021/08/02 05:09:06;;;;;;;1.20;1.10;;;15.60;99.90;;;;;;4986656;28;20050;-64
2021/08/02 05:11:33;;;;;;;3.35;1.67;;;15.70;99.90;;;;;;4985878;28;20507;-64
2021/08/02 05:14:00;;;;;;;1.63;0.90;;;15.70;99.90;;;;;;4986664;28;20599;-65
2021/08/02 05:16:27;;;;;;;6.78;0.85;;;15.80;99.90;;;;;;4985557;28;20046;-64
2021/08/02 05:18:54;;;;;;;3.28;1.23;;;15.90;99.90;;;;;;4986510;28;20069;-65
2021/08/02 05:21:21;;;;;;;1.05;0.90;;;15.90;99.90;;;;;;4985537;28;20045;-64
2021/08/02 05:23:48;;;;;;;1.85;0.85;;;16.00;99.90;;;;;;4986643;28;20084;-66
2021/08/02 05:26:15;;;;;;;1.55;1.00;;;16.10;99.90;;;;;;4982510;28;20096;-64
2021/08/02 05:28:42;;;;;;;0.75;0.60;;;16.10;99.90;;;;;;4986772;28;20054;-65
2021/08/02 05:31:09;;;;;;;1.15;1.05;;;16.20;99.90;;;;;;4984790;28;20065;-64
2021/08/02 05:33:36;;;;;;;1.38;0.75;;;16.30;99.90;;;;;;4985384;28;20153;-65
2021/08/02 05:36:04;;;;;;;1.27;1.00;;;16.40;99.90;;;;;;4985190;28;20451;-67
2021/08/02 05:38:31;;;;;;;2.08;1.08;;;16.40;99.90;;;;;;4983303;28;20064;-66
2021/08/02 05:40:58;;;;;;;2.97;1.52;;;16.50;99.90;;;;;;4984456;28;20353;-64
2021/08/02 05:43:25;;;;;;;1.63;1.17;;;16.60;99.90;;;;;;4985629;28;20057;-66
2021/08/02 05:45:52;;;;;;;3.20;1.50;;;16.60;99.90;;;;;;4984407;28;20450;-65
2021/08/02 05:48:20;;;;;;;1.35;1.08;;;16.70;99.90;;;;;;4982428;28;20116;-65
2021/08/02 05:50:47;;;;;;;0.82;0.60;;;16.80;99.90;;;;;;4970147;28;20110;-64
2021/08/02 05:53:14;;;;;;;1.20;1.02;;;16.90;99.90;;;;;;4983488;28;20042;-66
2021/08/02 05:55:41;;;;;;;2.08;1.13;;;16.90;99.90;;;;;;4986105;28;20101;-64
2021/08/02 05:58:08;;;;;;;1.88;1.00;;;16.90;99.90;;;;;;4981741;28;20043;-65
2021/08/02 06:00:35;;;;;;;0.98;0.80;;;16.90;99.90;;;;;;4981810;28;20066;-65
2021/08/02 06:03:02;;;;;;;2.10;0.80;;;16.90;99.90;;;;;;4986499;28;20097;-68
2021/08/02 06:05:29;;;;;;;4.43;1.35;;;16.90;99.90;;;;;;4982029;28;20487;-64
2021/08/02 06:07:56;;;;;;;1.67;0.77;;;16.80;99.90;;;;;;4984554;28;20373;-64
2021/08/02 06:10:23;;;;;;;0.70;0.60;;;16.80;99.90;;;;;;4982761;28;20046;-70
2021/08/02 06:12:50;;;;;;;1.23;0.95;;;16.70;99.90;;;;;;4986942;28;20065;-67
2021/08/02 06:15:17;;;;;;;2.80;0.93;;;16.70;99.90;;;;;;4985608;28;20080;-66
2021/08/02 06:17:44;;;;;;;5.20;1.30;;;16.70;99.90;;;;;;4985185;28;20058;-65
2021/08/02 06:20:12;;;;;;;3.80;0.82;;;16.70;99.90;;;;;;4983551;28;20049;-65
2021/08/02 06:22:39;;;;;;;1.70;1.05;;;16.80;99.90;;;;;;4983511;28;20050;-66
2021/08/02 06:25:07;;;;;;;2.47;1.48;;;16.80;99.90;;;;;;4984728;28;20038;-68
2021/08/02 06:27:34;;;;;;;1.55;0.75;;;16.80;99.90;;;;;;4984968;28;20054;-65
2021/08/02 06:30:02;;;;;;;2.40;1.40;;;16.90;99.90;;;;;;4985658;28;20129;-69
2021/08/02 06:32:29;;;;;;;1.92;1.10;;;16.90;99.90;;;;;;4985099;28;20057;-65
2021/08/02 06:34:56;;;;;;;0.98;0.73;;;16.90;99.90;;;;;;4980988;28;20050;-65
2021/08/02 06:37:24;;;;;;;0.82;0.82;;;17.00;99.90;;;;;;4962533;28;20047;-65
2021/08/02 06:39:51;;;;;;;3.40;1.45;;;17.10;99.90;;;;;;4981542;28;20050;-64
2021/08/02 06:42:18;;;;;;;2.50;0.43;;;17.10;99.90;;;;;;4982359;28;20097;-65
2021/08/02 06:44:45;;;;;;;2.38;0.70;;;17.30;99.90;;;;;;4983881;28;20062;-69
2021/08/02 06:47:12;;;;;;;4.20;1.40;;;17.30;99.90;;;;;;4984943;28;20039;-65
2021/08/02 06:49:39;;;;;;;1.95;1.10;;;17.40;99.90;;;;;;4984551;28;20042;-64
2021/08/02 06:52:06;;;;;;;1.83;1.40;;;17.40;99.90;;;;;;4984045;28;20120;-66
2021/08/02 06:54:33;;;;;;;2.47;0.88;;;17.40;99.90;;;;;;4983591;28;20400;-67
2021/08/02 06:57:00;;;;;;;3.63;1.67;;;17.40;99.90;;;;;;4983062;28;20065;-68
2021/08/02 06:59:27;;;;;;;1.67;0.98;;;17.30;99.90;;;;;;4983022;28;20038;-64
2021/08/02 07:01:54;;;;;;;1.33;0.80;;;17.30;99.90;;;;;;4983087;28;20057;-64
2021/08/02 07:04:21;;;;;;;2.88;1.30;;;17.20;99.90;;;;;;4983455;28;20042;-64
2021/08/02 07:06:48;;;;;;;2.78;1.10;;;17.10;99.90;;;;;;4979930;28;20070;-65
2021/08/02 07:09:15;;;;;;;2.75;0.82;;;17.10;99.90;;;;;;4985194;28;20049;-64
2021/08/02 07:11:42;;;;;;;1.13;0.88;;;17.00;99.90;;;;;;4982717;28;20082;-65
2021/08/02 07:14:09;;;;;;;1.55;0.93;;;17.00;99.90;;;;;;4982005;28;20046;-67
2021/08/02 07:16:36;;;;;;;3.53;0.98;;;17.00;99.90;;;;;;4966788;28;20137;-64
2021/08/02 07:19:03;;;;;;;0.68;0.68;;;17.00;99.90;;;;;;4981305;28;20035;-65
2021/08/02 07:21:30;;;;;;;1.90;1.00;;;17.00;99.90;;;;;;4983817;28;20046;-66
2021/08/02 07:23:57;;;;;;;2.47;1.10;;;17.10;99.90;;;;;;4984920;28;20129;-64
2021/08/02 07:26:26;;;;;;;1.75;1.15;;;17.40;99.90;;;;;;4982962;28;20102;-64
2021/08/02 07:28:58;;;;;;;3.72;1.25;;;17.40;99.90;;;;;;4982668;28;20246;-64
2021/08/02 07:31:25;;;;;;;3.33;1.13;;;17.50;99.90;;;;;;4984826;28;20046;-64
2021/08/02 07:33:53;;;;;;;2.58;1.10;;;17.50;99.90;;;;;;4985003;28;20130;-64
2021/08/02 07:36:20;;;;;;;2.47;1.42;;;17.50;99.90;;;;;;4982652;28;20068;-65
2021/08/02 07:38:47;;;;;;;2.47;1.15;;;17.50;99.90;;;;;;4981918;28;20097;-66
2021/08/02 07:41:14;;;;;;;2.70;1.60;;;17.40;99.90;;;;;;4983720;28;20119;-64
2021/08/02 07:43:41;;;;;;;1.70;1.15;;;17.40;99.90;;;;;;4984619;28;20396;-64
2021/08/02 07:46:09;;;;;;;7.65;2.28;;;17.40;99.90;;;;;;4982941;28;20441;-64
2021/08/02 07:48:36;;;;;;;2.67;1.52;;;17.50;99.90;;;;;;4982504;28;20065;-66
2021/08/02 07:51:04;;;;;;;8.77;1.77;;;17.60;99.90;;;;;;4981642;28;20042;-67
2021/08/02 07:53:31;;;;;;;2.45;1.20;;;17.70;99.90;;;;;;4983963;28;20146;-65
2021/08/02 07:55:58;;;;;;;3.75;1.27;;;17.70;99.90;;;;;;4982815;28;20062;-66
2021/08/02 07:58:25;;;;;;;3.25;1.20;;;17.70;99.90;;;;;;4980343;28;20138;-64
2021/08/02 08:00:52;;;;;;;3.00;1.10;;;17.70;99.90;;;;;;4981130;28;20120;-65
2021/08/02 08:03:20;;;;;;;4.70;1.60;;;17.70;99.90;;;;;;4985444;28;20049;-68
2021/08/02 08:05:47;;;;;;;6.30;2.38;;;17.70;99.90;;;;;;4981219;28;20202;-66
2021/08/02 08:08:14;;;;;;;2.35;1.10;;;17.80;99.90;;;;;;4982104;28;20065;-65
2021/08/02 08:10:41;;;;;;;5.13;1.50;;;18.00;99.90;;;;;;4981601;28;20101;-65
2021/08/02 08:13:08;;;;;;;3.13;1.13;;;18.10;99.90;;;;;;4984903;28;20061;-67
2021/08/02 08:15:35;;;;;;;4.38;1.65;;;18.00;99.90;;;;;;4981447;28;20046;-65
2021/08/02 08:18:02;;;;;;;3.17;1.23;;;17.90;99.90;;;;;;4985345;28;20065;-66
2021/08/02 08:20:29;;;;;;;4.63;1.40;;;17.90;99.90;;;;;;4979763;28;20050;-65
2021/08/02 08:22:57;;;;;;;4.75;1.58;;;17.80;99.90;;;;;;4985485;28;20077;-64
2021/08/02 08:25:24;;;;;;;5.75;3.13;;;17.80;99.90;;;;;;4979721;28;20540;-65
2021/08/02 08:27:51;;;;;;;2.05;1.13;;;17.80;99.90;;;;;;4985034;28;20046;-67
2021/08/02 08:30:20;;;;;;;3.58;1.60;;;17.90;99.90;;;;;;4980011;28;20042;-64
2021/08/02 08:32:47;;;;;;;2.75;1.30;;;18.10;99.90;;;;;;4984031;28;20344;-64
2021/08/02 08:35:14;;;;;;;5.35;2.10;;;18.00;99.90;;;;;;4978449;28;20161;-64
2021/08/02 08:37:41;;;;;;;3.40;1.73;;;18.00;99.90;;;;;;4985483;28;20065;-64
2021/08/02 08:40:09;;;;;;;3.38;1.52;;;18.00;99.90;;;;;;4982392;28;20432;-66
2021/08/02 08:42:42;;;;;;;3.25;1.25;;;18.20;99.90;;;;;;4980550;28;20153;-65
2021/08/02 08:45:10;;;;;;;2.42;1.60;;;18.20;99.90;;;;;;4982467;28;20129;-65
2021/08/02 08:47:37;;;;;;;2.80;1.50;;;18.10;99.90;;;;;;4980917;28;20062;-71
2021/08/02 08:50:06;;;;;;;3.60;1.60;;;18.00;99.90;;;;;;4979161;28;20824;-68
2021/08/02 08:52:35;;;;;;;3.88;1.63;;;18.00;99.90;;;;;;4978160;28;20129;-68
2021/08/02 08:55:09;;;;;;;6.82;1.80;;;18.00;99.90;;;;;;4980992;28;20706;-65
2021/08/02 08:57:36;;;;;;;5.80;1.52;;;18.20;99.90;;;;;;4982034;28;20058;-65
2021/08/02 09:00:04;;;;;;;1.48;1.00;;;18.40;99.90;;;;;;4980579;28;20078;-66
2021/08/02 09:02:31;;;;;;;1.38;0.98;;;18.70;99.90;;;;;;4973634;28;20322;-65
2021/08/02 09:05:01;;;;;;;2.03;1.08;;;18.80;99.90;;;;;;4977972;28;20042;-65
2021/08/02 09:07:40;;;;;;;1.80;0.60;;;18.90;99.90;;;;;;4982930;28;20463;-66
2021/08/02 09:10:10;;;;;;;2.28;1.33;;;18.80;99.90;;;;;;4976660;28;20049;-64
2021/08/02 09:12:48;;;;;;;1.67;0.90;;;18.60;99.90;;;;;;4978888;28;20042;-67
2021/08/02 09:15:15;;;;;;;2.60;1.25;;;18.40;99.90;;;;;;4981305;28;20063;-66
2021/08/02 09:17:42;;;;;;;1.45;0.77;;;18.30;99.90;;;;;;4981779;28;20069;-66
2021/08/02 09:20:21;;;;;;;2.97;1.33;;;18.30;99.90;;;;;;4981385;28;20042;-68
2021/08/02 09:22:49;;;;;;;1.20;0.88;;;18.50;99.90;;;;;;4979823;28;20058;-66
2021/08/02 09:25:22;;;;;;;4.03;1.10;;;18.50;99.90;;;;;;4986392;28;20441;-65
2021/08/02 09:27:50;;;;;;;1.33;1.23;;;18.50;99.90;;;;;;4984984;28;20042;-64
2021/08/02 09:30:24;;;;;;;4.30;1.00;;;18.50;99.90;;;;;;4985719;28;20385;-64
2021/08/02 09:32:53;;;;;;;0.77;0.70;;;18.40;99.90;;;;;;4982805;28;20059;-66
2021/08/02 09:35:32;;;;;;;2.55;0.90;;;18.30;99.90;;;;;;4930643;28;20195;-64
2021/08/02 09:38:13;;;;;;;1.60;0.90;;;18.20;99.90;;;;;;2399408;28;10023495;-69
2021/08/02 09:40:46;;;;;;;1.83;1.15;;;18.10;99.90;;;;;;3597314;28;10001517;-64
2021/08/02 09:43:20;;;;;;;3.30;0.88;;;18.00;99.90;;;;;;4983735;28;20396;-65
2021/08/02 09:46:05;;;;;;;5.38;1.27;;;18.00;99.90;;;;;;4984070;28;20053;-68
2021/08/02 09:48:40;;;;;;;1.65;1.02;;;17.90;99.90;;;;;;4983676;28;20138;-69
2021/08/02 09:51:12;;;;;;;2.58;1.10;;;18.10;99.90;;;;;;4983217;28;20050;-67
2021/08/02 09:53:44;;;;;;;1.45;1.08;;;18.30;99.90;;;;;;4984320;28;20050;-65
2021/08/02 09:56:15;;;;;;;1.88;1.10;;;18.30;99.90;;;;;;4983135;28;20495;-65
2021/08/02 09:59:01;;;;;;;2.00;0.88;;;18.30;99.90;;;;;;4980843;28;20064;-68
2021/08/02 10:01:28;;;;;;;2.00;0.65;;;18.40;99.90;;;;;;4985941;28;20047;-65
2021/08/02 10:03:56;;;;;;;2.17;0.77;;;18.60;99.90;;;;;;4996188;28;20046;-64
2021/08/02 10:06:24;;;;;;;4.75;1.98;;;18.80;99.90;;;;;;4965136;28;20187;-66
2021/08/02 10:08:51;;;;;;;1.52;0.93;;;19.10;99.90;;;;;;4970509;28;20084;-64
2021/08/02 10:11:18;;;;;;;2.13;1.45;;;19.00;99.90;;;;;;4983692;28;20054;-65
2021/08/02 10:13:45;;;;;;;2.63;1.30;;;19.00;99.90;;;;;;4985928;28;20054;-66
2021/08/02 10:16:14;;;;;;;2.83;1.85;;;19.00;99.90;;;;;;4979483;28;20050;-66
2021/08/02 10:18:48;;;;;;;4.95;1.38;;;19.20;99.90;;;;;;4987140;28;20046;-66
2021/08/02 10:21:15;;;;;;;2.15;1.40;;;19.00;99.90;;;;;;4983133;28;20052;-65
2021/08/02 10:23:42;;;;;;;1.35;1.17;;;19.00;99.90;;;;;;4984216;28;20046;-64
2021/08/02 10:26:30;;;;;;;1.00;1.00;;;18.90;99.90;;;;;;4985198;28;20050;-66
2021/08/02 10:29:07;;;;;;;5.15;1.17;;;19.10;99.90;;;;;;4984468;28;20399;-66
2021/08/02 10:31:46;;;;;;;3.83;1.65;;;19.30;99.90;;;;;;4984547;28;20045;-65
2021/08/02 10:34:21;;;;;;;4.57;1.52;;;19.40;99.90;;;;;;4984068;28;20615;-65
2021/08/02 10:37:05;;;;;;;4.05;1.33;;;19.50;99.90;;;;;;4982463;28;20543;-65
2021/08/02 10:39:34;;;;;;;3.20;0.85;;;19.60;99.90;;;;;;4985610;28;20046;-68
2021/08/02 10:42:09;;;;;;;4.13;0.75;;;19.60;99.90;;;;;;4981986;28;20045;-66
2021/08/02 10:44:58;;;;;;;1.83;1.13;;;19.80;99.90;;;;;;4982852;28;20130;-67
2021/08/02 10:47:39;;;;;;;1.13;0.80;;;19.90;99.90;;;;;;4982510;28;20129;-65
2021/08/02 10:50:09;;;;;;;5.40;1.15;;;20.00;99.90;;;;;;4983325;28;20415;-69
2021/08/02 10:52:36;;;;;;;3.15;1.10;;;20.00;99.90;;;;;;4982551;28;20057;-65
2021/08/02 10:55:17;;;;;;;1.98;1.10;;;20.00;99.90;;;;;;4976289;28;20054;-66
2021/08/02 10:57:56;;;;;;;6.25;1.02;;;20.00;99.90;;;;;;4974338;28;20105;-65
2021/08/02 11:00:23;;;;;;;4.47;1.20;;;20.10;99.90;;;;;;4979200;28;20046;-65
2021/08/02 11:02:52;;;;;;;2.03;1.13;;;20.10;99.90;;;;;;4982799;28;20046;-68
2021/08/02 11:05:21;;;;;;;1.42;0.80;;;20.20;99.90;;;;;;4981727;28;20415;-70
2021/08/02 11:07:49;;;;;;;2.33;0.93;;;20.10;99.90;;;;;;4984085;28;20038;-67
2021/08/02 11:10:17;;;;;;;2.80;0.80;;;19.90;99.90;;;;;;4982070;28;20038;-66
2021/08/02 11:12:47;;;;;;;1.70;1.27;;;19.90;99.90;;;;;;4982844;28;20046;-68
2021/08/02 11:15:15;;;;;;;2.58;0.60;;;19.80;99.90;;;;;;4984741;28;20096;-67
2021/08/02 11:17:53;;;;;;;2.47;0.90;;;19.70;99.90;;;;;;4985075;28;20157;-66
2021/08/02 11:20:24;;;;;;;3.20;1.00;;;19.60;99.90;;;;;;4981076;28;20339;-66
2021/08/02 11:22:53;;;;;;;2.33;0.95;;;19.70;99.90;;;;;;4984782;28;20046;-65
2021/08/02 11:25:30;;;;;;;2.28;1.23;;;19.70;99.90;;;;;;4970835;28;20158;-68
2021/08/02 11:27:59;;;;;;;4.47;1.25;;;19.40;99.90;;;;;;4979752;28;20054;-65
2021/08/02 11:30:28;;;;;;;2.28;0.95;;;19.30;99.90;;;;;;4962199;28;20735;-66
2021/08/02 11:32:56;;;;;;;4.40;1.50;;;19.40;99.90;;;;;;4980318;28;20127;-66
2021/08/02 11:35:37;;;;;;;2.47;1.38;;;19.20;99.90;;;;;;4972537;28;20602;-68
2021/08/02 11:38:05;;;;;;;4.47;0.90;;;19.10;99.90;;;;;;4970242;28;20524;-67
2021/08/02 11:40:36;;;;;;;4.35;1.10;;;19.00;99.90;;;;;;4981227;28;20105;-65
2021/08/02 11:43:05;;;;;;;1.02;0.77;;;18.90;99.90;;;;;;4982949;28;20428;-70
2021/08/02 11:45:33;;;;;;;6.82;1.80;;;19.00;99.90;;;;;;4982639;28;20631;-68
2021/08/02 11:48:06;;;;;;;2.88;1.10;;;19.00;99.90;;;;;;4981506;28;20038;-65
2021/08/02 11:50:33;;;;;;;2.08;1.27;;;19.00;99.90;;;;;;4980300;28;20054;-69
2021/08/02 11:53:05;;;;;;;2.47;0.90;;;19.10;99.90;;;;;;4981496;28;20141;-66
2021/08/02 11:55:32;;;;;;;2.28;0.85;;;19.00;99.90;;;;;;4982518;28;20061;-66
2021/08/02 11:58:03;;;;;;;2.38;1.00;;;19.10;99.90;;;;;;4983963;28;20042;-65
2021/08/02 12:00:30;;;;;;;2.58;1.13;;;19.10;99.90;;;;;;4980586;28;20050;-67
2021/08/02 12:03:08;;;;;;;7.07;1.85;;;19.10;99.90;;;;;;4984133;28;20729;-64
2021/08/02 12:05:39;;;;;;;5.05;1.60;;;19.00;99.90;;;;;;4979643;28;20574;-66
2021/08/02 12:08:14;;;;;;;2.55;1.33;;;18.70;99.90;;;;;;4984165;28;20046;-65
2021/08/02 12:10:42;;;;;;;2.28;1.58;;;18.50;99.90;;;;;;4978931;28;20050;-68
2021/08/02 12:13:12;;;;;;;6.78;2.33;;;18.40;99.90;;;;;;4981499;28;20046;-67
2021/08/02 12:15:57;;;;;;;3.30;0.82;;;18.50;99.90;;;;;;4981192;28;20106;-68
2021/08/02 12:18:29;;;;;;;2.72;2.05;;;18.40;99.90;;;;;;4978430;28;20056;-66
2021/08/02 12:21:24;;;;;;;2.05;1.27;;;18.40;99.90;;;;;;4977033;28;20149;-65
2021/08/02 12:24:20;;;;;;;3.70;1.80;;;18.50;99.90;;;;;;4981995;28;20049;-67
2021/08/02 12:26:55;;;;;;;2.60;1.10;;;18.50;99.90;;;;;;4980798;28;20523;-68
2021/08/02 12:29:30;;;;;;;2.78;1.17;;;18.60;99.90;;;;;;4983317;28;20117;-68
2021/08/02 12:32:03;;;;;;;3.70;1.40;;;18.40;99.90;;;;;;4991963;28;20049;-65
2021/08/02 12:34:30;;;;;;;4.90;1.65;;;18.40;99.90;;;;;;4982567;28;20372;-66
2021/08/02 12:36:59;;;;;;;3.00;0.82;;;18.10;99.90;;;;;;4979676;28;20049;-67
2021/08/02 12:39:30;;;;;;;4.88;1.45;;;18.10;99.90;;;;;;4983662;28;20066;-65
2021/08/02 12:41:57;;;;;;;13.57;2.97;;;18.10;99.90;;;;;;4980497;28;20042;-67
2021/08/02 12:44:26;;;;;;;2.38;1.45;;;18.00;99.90;;;;;;4982582;28;20141;-66
2021/08/02 12:46:53;;;;;;;3.00;1.90;;;18.10;99.90;;;;;;4979089;28;20055;-67
2021/08/02 12:49:20;;;;;;;1.70;1.00;;;18.20;99.90;;;;;;4978747;28;20062;-66
2021/08/02 12:51:47;;;;;;;3.28;1.40;;;18.20;99.90;;;;;;4969356;28;20093;-66
2021/08/02 12:54:17;;;;;;;1.17;0.98;;;18.20;99.90;;;;;;4976521;28;20034;-65
2021/08/02 12:56:45;;;;;;;4.95;1.42;;;18.20;99.90;;;;;;4982309;28;20137;-68
2021/08/02 12:59:12;;;;;;;1.20;0.90;;;18.30;99.90;;;;;;4980926;28;20062;-66
2021/08/02 13:01:39;;;;;;;1.30;1.15;;;18.50;99.90;;;;;;4975204;28;20039;-69